logo
Search for airport 
image banner adimage banner adimage banner ad
image banner ad

SCSN - Santo Domingo

Located in Santo Domingo, Chile

ICAO - SCSN, IATA -

Data provided by Airmate  

General information

Coordinates: S33°39'24" W71°36'57"
Elevation is 246 feet MSL.
Magnetic variation is 2° East
View others Airports in Valparaíso

Operational data

Special qualification required
Current time UTC:
Current local time:
Weather
METAR: SCSN 231800Z 30008KT 260V320 9999 SCT040 BKN180 14/09 Q1022
View NOTAMs / SUP AIP / TFR affecting this airport [VIEW]
Communications frequencies: [VIEW]

Runways:

RWY identifierQFULength (ft)Width (ft)SurfaceLDA (ft)
0556°262658ASPH
23236°262658ASPH

Airport contact information

Address: Santo Domingo Chile

Other aviation service providers

Aviation club (not for profit)

Club Aéreo San Antonio

Club Aéreo San Antonio

Satellite view of SCSN